This is the latest recevied weather packets stored in our database for station/object OE-2002. If no packets are shown the sender has not sent any weather packets the latest 10 day(s).
| Time | Temp. | Humidity | Pressure | Rain* | Wind** | Luminosity | Snow |
|---|---|---|---|---|---|---|---|
| 1787870467 | 22.22° C | 71% | 1012.6 hPa | - | - | - | - |
| 1787868667 | 21.67° C | 78% | 1012.7 hPa | - | - | - | - |
| 1787866867 | 22.22° C | 76% | 1013.6 hPa | - | - | - | - |
| 1787865067 | 23.33° C | 74% | 1013.4 hPa | - | - | - | - |
| 1787863267 | 23.89° C | 73% | 1013.4 hPa | - | - | - | - |
| 1787861467 | 23.89° C | 72% | 1013.3 hPa | - | - | - | - |
| 1787859668 | 25° C | 70% | 1013.2 hPa | - | - | - | - |
| 1787857867 | 25.56° C | 69% | 1013.1 hPa | - | - | - | - |
| 1787856067 | 26.11° C | 69% | 1013 hPa | - | - | - | - |
| 1787854267 | 27.22° C | 65% | 1011.7 hPa | - | - | - | - |
| 1787852706 | 27.78° C | 62% | 1011.6 hPa | - | - | - | - |
| 1787850667 | 28.89° C | 60% | 1011.4 hPa | - | - | - | - |
| 1787848867 | 29.44° C | 57% | 1011.3 hPa | - | - | - | - |
| 1787847067 | 30° C | 55% | 1011.2 hPa | - | - | - | - |
| 1787845266 | 30° C | 54% | 1012.3 hPa | - | - | - | - |
| 1787843467 | 30.56° C | 53% | 1012.2 hPa | - | - | - | - |
| 1787841667 | 31.11° C | 51% | 1012.1 hPa | - | - | - | - |
| 1787839867 | 31.11° C | 51% | 1012.1 hPa | - | - | - | - |
| 1787838067 | 30.56° C | 49% | 1012.2 hPa | - | - | - | - |
| 1787836267 | 30.56° C | 48% | 1012.2 hPa | - | - | - | - |
| 1787834467 | 30° C | 47% | 1012.3 hPa | - | - | - | - |
| 1787832667 | 30° C | 47% | 1013.4 hPa | - | - | - | - |
| 1787830867 | 29.44° C | 46% | 1013.4 hPa | - | - | - | - |
| 1787829067 | 28.89° C | 49% | 1013.5 hPa | - | - | - | - |
| 1787827266 | 29.44° C | 47% | 1013.5 hPa | - | - | - | - |
* Rain since midnight (hover to see other rain measurements)
** Current wind speed in m/s (hover to see current wind gust speed)